Time;durP1;ratioP1;P1;durP2;ratioP2;P2;SDS_P1;SDS_P2;PMS_P1;PMS_P2;Temp;Humidity;BMP_temperature;BMP_pressure;BME280_temperature;BME280_humidity;BME280_pressure;Samples;Min_cycle;Max_cycle;Signal;HPM_P1;HPM_P2
2022/04/14 00:02:21;;;;;;;14.00;11.80;;;12.40;1.00;;;;;;5067428;28;20495;-84
2022/04/14 00:04:48;;;;;;;14.00;12.60;;;12.80;1.00;;;;;;5065427;28;20441;-84
2022/04/14 00:07:14;;;;;;;12.70;11.07;;;12.80;1.00;;;;;;5065668;28;20454;-84
2022/04/14 00:09:41;;;;;;;12.37;11.00;;;11.50;1.00;;;;;;5065500;28;20470;-84
2022/04/14 00:12:08;;;;;;;16.83;11.93;;;12.80;1.00;;;;;;5065427;28;20503;-84
2022/04/14 00:14:38;;;;;;;13.07;11.73;;;12.80;1.00;;;;;;5064064;28;20449;-84
2022/04/14 00:17:05;;;;;;;14.80;11.67;;;12.70;1.00;;;;;;5062818;28;20457;-83
2022/04/14 00:19:31;;;;;;;16.17;12.60;;;12.70;1.00;;;;;;5059295;28;20515;-83
2022/04/14 00:21:58;;;;;;;15.03;12.60;;;12.30;1.00;;;;;;5061277;28;21002;-84
2022/04/14 00:24:25;;;;;;;16.33;11.87;;;12.40;1.00;;;;;;5062091;28;20446;-84
2022/04/14 00:26:51;;;;;;;15.97;12.00;;;12.50;1.00;;;;;;5061594;28;20450;-83
2022/04/14 00:29:18;;;;;;;14.40;12.43;;;12.50;1.00;;;;;;5062703;28;20478;-83
2022/04/14 00:31:46;;;;;;;13.80;12.30;;;12.70;1.00;;;;;;5062913;28;20420;-84
2022/04/14 00:34:12;;;;;;;15.30;12.50;;;12.30;1.00;;;;;;5062505;28;20496;-84
2022/04/14 00:36:39;;;;;;;22.13;13.60;;;12.30;1.00;;;;;;5063851;28;20468;-84
2022/04/14 00:39:06;;;;;;;12.57;11.27;;;12.30;1.00;;;;;;5062765;28;20450;-84
2022/04/14 00:41:32;;;;;;;13.40;11.77;;;11.90;1.00;;;;;;5067465;28;20456;-83
2022/04/14 00:43:59;;;;;;;13.47;12.07;;;12.50;1.00;;;;;;5066788;28;20476;-84
2022/04/14 00:46:25;;;;;;;14.23;11.60;;;12.20;1.00;;;;;;5064210;28;20446;-84
2022/04/14 00:48:54;;;;;;;12.73;11.50;;;11.90;1.00;;;;;;5057714;28;20500;-84
2022/04/14 00:51:20;;;;;;;14.90;12.23;;;12.40;1.00;;;;;;5059404;28;20894;-84
2022/04/14 00:53:47;;;;;;;14.10;11.37;;;12.40;1.00;;;;;;5059922;28;20477;-84
2022/04/14 00:56:14;;;;;;;12.57;11.47;;;12.40;1.00;;;;;;5062177;28;20450;-84
2022/04/14 00:58:41;;;;;;;14.33;12.83;;;12.20;1.00;;;;;;5063342;28;20466;-84
2022/04/14 01:01:08;;;;;;;13.37;12.00;;;12.10;1.00;;;;;;5062320;28;20465;-84
2022/04/14 01:03:35;;;;;;;15.40;12.80;;;12.10;1.00;;;;;;5064725;28;20832;-85
2022/04/14 01:06:04;;;;;;;15.10;12.70;;;12.10;1.00;;;;;;5065569;28;20453;-84
2022/04/14 01:08:32;;;;;;;15.47;12.20;;;11.90;1.00;;;;;;5064311;28;20885;-84
2022/04/14 01:10:59;;;;;;;14.50;12.20;;;12.10;1.00;;;;;;5064662;28;20463;-84
2022/04/14 01:13:26;;;;;;;12.20;11.00;;;12.00;1.00;;;;;;5065819;28;20448;-85
2022/04/14 01:15:57;;;;;;;14.00;12.13;;;12.20;1.00;;;;;;5063420;28;20420;-84
2022/04/14 01:18:24;;;;;;;14.57;12.60;;;12.10;1.00;;;;;;5064115;28;20464;-84
2022/04/14 01:20:51;;;;;;;15.70;12.67;;;11.90;1.00;;;;;;5063203;28;20503;-84
2022/04/14 01:23:24;;;;;;;14.33;12.90;;;12.00;1.00;;;;;;5063460;28;20445;-84
2022/04/14 01:25:52;;;;;;;17.43;11.90;;;11.90;1.00;;;;;;5064919;28;20438;-84
2022/04/14 01:28:19;;;;;;;15.03;11.53;;;11.90;1.00;;;;;;5064222;28;20481;-84
2022/04/14 01:30:45;;;;;;;13.93;11.93;;;11.90;1.00;;;;;;5070871;28;20473;-84
2022/04/14 01:33:12;;;;;;;13.57;10.40;;;11.90;1.00;;;;;;5073087;28;20438;-84
2022/04/14 01:35:39;;;;;;;13.00;11.60;;;11.70;1.00;;;;;;5075734;28;20445;-84
2022/04/14 01:38:06;;;;;;;14.43;12.90;;;11.70;1.00;;;;;;5073488;28;20474;-84
2022/04/14 01:40:33;;;;;;;14.77;12.37;;;11.60;1.00;;;;;;5069410;28;20531;-84
2022/04/14 01:43:01;;;;;;;16.93;12.30;;;11.60;1.00;;;;;;5072618;28;20446;-83
2022/04/14 01:45:27;;;;;;;14.20;12.73;;;11.60;1.00;;;;;;5073798;28;20450;-84
2022/04/14 01:47:54;;;;;;;25.40;14.20;;;11.70;1.00;;;;;;5074053;28;20413;-83
2022/04/14 01:50:21;;;;;;;13.50;12.20;;;11.70;1.00;;;;;;5074729;28;20470;-84
2022/04/14 01:52:48;;;;;;;13.40;12.00;;;11.60;1.00;;;;;;5074289;28;20487;-83
2022/04/14 01:55:14;;;;;;;16.00;11.80;;;11.50;99.90;;;;;;5075336;28;20442;-83
2022/04/14 01:57:41;;;;;;;16.30;13.03;;;11.50;46.00;;;;;;5075523;28;20445;-83
2022/04/14 02:00:10;;;;;;;14.83;13.23;;;11.50;28.40;;;;;;5075079;28;20454;-84
2022/04/14 02:02:37;;;;;;;14.90;12.77;;;11.50;99.90;;;;;;5074156;28;20472;-85
2022/04/14 02:05:04;;;;;;;16.03;13.10;;;11.50;39.40;;;;;;5068106;28;20416;-85
2022/04/14 02:07:31;;;;;;;13.10;11.80;;;11.40;99.90;;;;;;5070278;28;20898;-85
2022/04/14 02:09:57;;;;;;;16.40;11.97;;;11.40;99.90;;;;;;5072401;28;20500;-84
2022/04/14 02:12:24;;;;;;;15.17;13.50;;;11.40;99.90;;;;;;5078002;28;20430;-82
2022/04/14 02:14:51;;;;;;;17.13;13.07;;;11.20;99.90;;;;;;5078088;28;20422;-83
2022/04/14 02:17:20;;;;;;;15.63;12.00;;;11.20;1.00;;;;;;5073996;28;20472;-84
2022/04/14 02:19:47;;;;;;;15.50;11.67;;;11.10;99.90;;;;;;5072670;28;20470;-85
2022/04/14 02:22:14;;;;;;;12.87;11.50;;;11.20;1.00;;;;;;5072936;28;20397;-84
2022/04/14 02:24:40;;;;;;;13.83;12.50;;;11.20;99.90;;;;;;5081054;28;20429;-83
2022/04/14 02:27:07;;;;;;;16.80;14.27;;;11.20;1.00;;;;;;5080366;28;20429;-83
2022/04/14 02:29:34;;;;;;;15.17;13.33;;;11.20;1.00;;;;;;5081542;28;20474;-84
2022/04/14 02:32:00;;;;;;;20.53;13.13;;;11.20;1.00;;;;;;5081704;28;20425;-83
2022/04/14 02:34:28;;;;;;;16.57;12.67;;;11.20;99.90;;;;;;5081739;28;20421;-83
2022/04/14 02:36:55;;;;;;;14.07;12.70;;;11.10;1.00;;;;;;5081598;28;20424;-83
2022/04/14 02:39:21;;;;;;;15.03;12.77;;;11.10;1.00;;;;;;5077708;28;20465;-84
2022/04/14 02:41:48;;;;;;;16.70;12.63;;;11.10;13.90;;;;;;5074234;28;20453;-84
2022/04/14 02:44:15;;;;;;;20.90;13.70;;;11.00;1.00;;;;;;5072164;28;20805;-85
2022/04/14 02:46:41;;;;;;;14.57;12.67;;;11.00;99.90;;;;;;5065964;28;20443;-84
2022/04/14 02:49:08;;;;;;;17.60;13.33;;;11.00;10.60;;;;;;5064811;28;20475;-84
2022/04/14 02:51:36;;;;;;;13.90;12.10;;;11.00;1.00;;;;;;5064745;28;20865;-85
2022/04/14 02:54:04;;;;;;;16.80;12.73;;;11.10;99.90;;;;;;5066407;28;20446;-85
2022/04/14 02:56:30;;;;;;;18.53;13.63;;;11.20;1.00;;;;;;5073308;28;20429;-84
2022/04/14 02:58:57;;;;;;;16.43;13.43;;;11.20;99.90;;;;;;5079597;28;20453;-84
2022/04/14 03:01:24;;;;;;;16.03;13.53;;;11.20;99.90;;;;;;5077807;28;20454;-84
2022/04/14 03:03:50;;;;;;;16.20;13.47;;;11.20;1.00;;;;;;5071180;28;20469;-84
2022/04/14 03:06:17;;;;;;;14.60;12.73;;;11.10;93.80;;;;;;5069431;28;20472;-85
2022/04/14 03:08:45;;;;;;;15.10;13.43;;;11.10;99.90;;;;;;5072207;28;20490;-84
2022/04/14 03:11:12;;;;;;;16.27;13.00;;;11.10;99.90;;;;;;5075148;28;20462;-84
2022/04/14 03:13:39;;;;;;;13.43;11.87;;;11.10;92.30;;;;;;5073720;28;20430;-85
2022/04/14 03:16:06;;;;;;;14.80;13.30;;;10.70;99.90;;;;;;5072466;28;20446;-84
2022/04/14 03:18:33;;;;;;;15.87;13.10;;;11.40;1.00;;;;;;5074515;28;20461;-84
2022/04/14 03:20:59;;;;;;;17.80;13.17;;;11.40;99.90;;;;;;5078122;28;20481;-84
2022/04/14 03:23:26;;;;;;;18.10;13.10;;;11.40;1.00;;;;;;5076045;28;20468;-84
2022/04/14 03:25:54;;;;;;;13.23;12.00;;;11.50;99.90;;;;;;5070859;28;20457;-85
2022/04/14 03:28:21;;;;;;;14.20;12.80;;;11.70;1.00;;;;;;5068615;28;20453;-85
2022/04/14 03:30:47;;;;;;;14.00;12.60;;;11.80;1.00;;;;;;5064239;28;20462;-85
2022/04/14 03:33:14;;;;;;;17.77;13.80;;;11.70;99.90;;;;;;5062801;28;20448;-84
2022/04/14 03:35:40;;;;;;;17.10;13.87;;;11.90;1.00;;;;;;5060239;28;20851;-85
2022/04/14 03:38:07;;;;;;;20.50;13.53;;;12.10;1.00;;;;;;5061936;28;20558;-84
2022/04/14 03:40:34;;;;;;;16.73;13.70;;;12.10;1.00;;;;;;5062838;28;20466;-84
2022/04/14 03:43:02;;;;;;;15.20;13.60;;;12.00;1.00;;;;;;5064399;28;20446;-84
2022/04/14 03:45:29;;;;;;;24.30;12.57;;;12.00;1.00;;;;;;5063663;28;20465;-85
2022/04/14 03:47:55;;;;;;;18.70;13.20;;;12.20;1.00;;;;;;5065792;28;20457;-85
2022/04/14 03:50:22;;;;;;;13.80;12.27;;;12.20;1.00;;;;;;5063262;28;20521;-84
2022/04/14 03:52:49;;;;;;;12.50;11.30;;;12.10;99.90;;;;;;5063514;28;20986;-84
2022/04/14 03:55:15;;;;;;;11.60;10.40;;;12.10;1.00;;;;;;5062855;28;20442;-85
2022/04/14 03:57:42;;;;;;;15.13;11.80;;;12.00;58.10;;;;;;5063804;28;20435;-84
2022/04/14 04:00:12;;;;;;;11.97;9.93;;;12.00;1.00;;;;;;5061850;28;20245;-84
2022/04/14 04:02:39;;;;;;;15.00;10.73;;;12.00;99.90;;;;;;5062686;28;20434;-84
2022/04/14 04:05:07;;;;;;;11.93;10.73;;;11.90;99.90;;;;;;5063154;28;20464;-85
2022/04/14 04:07:34;;;;;;;12.90;10.13;;;11.90;1.00;;;;;;5062783;28;20493;-84
2022/04/14 04:10:00;;;;;;;13.87;10.20;;;11.90;99.90;;;;;;5067055;28;20460;-84
2022/04/14 04:12:27;;;;;;;11.60;9.27;;;11.90;99.90;;;;;;5065337;28;20457;-84
2022/04/14 04:14:53;;;;;;;13.20;10.00;;;11.80;99.90;;;;;;5060477;28;21141;-84
2022/04/14 04:17:21;;;;;;;12.17;9.77;;;11.80;99.90;;;;;;5060739;28;20446;-85
2022/04/14 04:19:48;;;;;;;10.67;9.50;;;;;;;;;;5063960;28;20488;-85
2022/04/14 04:22:15;;;;;;;13.17;9.57;;;11.90;99.90;;;;;;5076683;28;20392;-83
2022/04/14 04:24:42;;;;;;;12.50;9.00;;;11.80;99.90;;;;;;5079503;28;20433;-83
2022/04/14 04:27:08;;;;;;;12.88;9.25;;;11.80;99.90;;;;;;5073929;28;20462;-85
2022/04/14 04:29:35;;;;;;;12.43;9.03;;;11.80;99.90;;;;;;5067467;28;20288;-84
2022/04/14 04:32:03;;;;;;;11.05;9.20;;;11.80;99.90;;;;;;5076135;28;20455;-84
2022/04/14 04:34:31;;;;;;;11.20;10.00;;;11.80;99.90;;;;;;5071327;28;20203;-83
2022/04/14 04:36:57;;;;;;;14.73;9.70;;;11.80;99.90;;;;;;5078648;28;20437;-82
2022/04/14 04:39:24;;;;;;;12.77;9.50;;;;;;;;;;5079062;28;20458;-83
2022/04/14 04:41:51;;;;;;;13.03;10.13;;;11.80;99.90;;;;;;5078545;28;20446;-84
2022/04/14 04:44:18;;;;;;;10.57;9.50;;;;;;;;;;5066200;28;20456;-84
2022/04/14 04:46:45;;;;;;;10.17;9.00;;;11.90;99.90;;;;;;5059847;28;20449;-84
2022/04/14 04:49:12;;;;;;;13.90;9.40;;;11.90;99.90;;;;;;5061376;28;20444;-85
2022/04/14 04:51:40;;;;;;;9.40;7.60;;;12.00;99.90;;;;;;5065358;28;20194;-85
2022/04/14 04:54:06;;;;;;;12.60;9.27;;;11.90;99.90;;;;;;5061281;28;20449;-84
2022/04/14 04:56:33;;;;;;;12.50;8.20;;;11.80;99.90;;;;;;5060977;28;20476;-86
2022/04/14 04:59:02;;;;;;;9.10;7.97;;;11.90;99.90;;;;;;5074517;28;20446;-84
2022/04/14 05:01:29;;;;;;;10.60;8.50;;;12.10;99.90;;;;;;5075988;28;20426;-83
2022/04/14 05:03:56;;;;;;;10.33;7.97;;;12.20;99.90;;;;;;5071629;28;20445;-84
2022/04/14 05:06:22;;;;;;;10.40;8.07;;;12.10;99.90;;;;;;5067915;28;20479;-84
2022/04/14 05:08:50;;;;;;;12.60;9.87;;;13.10;99.90;;;;;;5066939;28;20450;-84
2022/04/14 05:11:17;;;;;;;10.80;7.53;;;12.20;99.90;;;;;;5065307;28;20438;-84
2022/04/14 05:13:43;;;;;;;11.50;9.70;;;12.20;99.90;;;;;;5064390;28;20446;-85
2022/04/14 05:16:12;;;;;;;11.00;8.50;;;12.50;99.90;;;;;;5063745;28;20445;-85
2022/04/14 05:18:39;;;;;;;10.73;8.50;;;12.20;99.90;;;;;;5062231;28;20496;-85
2022/04/14 05:21:05;;;;;;;10.57;9.47;;;12.10;99.90;;;;;;5063349;28;20465;-84
2022/04/14 05:23:32;;;;;;;10.90;8.90;;;12.20;99.90;;;;;;5062066;28;20454;-85
2022/04/14 05:26:00;;;;;;;8.83;8.00;;;12.20;99.90;;;;;;5062045;28;21022;-85
2022/04/14 05:28:26;;;;;;;9.60;8.10;;;12.30;99.90;;;;;;5063703;28;20433;-83
2022/04/14 05:30:53;;;;;;;10.03;8.70;;;12.40;99.90;;;;;;5061241;28;20493;-85
2022/04/14 05:33:20;;;;;;;11.90;7.70;;;12.50;99.90;;;;;;5061705;28;20445;-85
2022/04/14 05:35:46;;;;;;;11.50;8.60;;;12.40;99.90;;;;;;5061803;28;20449;-85
2022/04/14 05:38:14;;;;;;;11.90;7.97;;;12.40;99.90;;;;;;5060869;28;20453;-84
2022/04/14 05:40:43;;;;;;;11.17;8.90;;;12.40;99.90;;;;;;5059820;28;20488;-84
2022/04/14 05:43:15;;;;;;;9.63;8.73;;;12.60;99.90;;;;;;5060498;28;20449;-84
2022/04/14 05:45:44;;;;;;;9.57;8.63;;;12.60;99.90;;;;;;5062043;28;20436;-84
2022/04/14 05:48:12;;;;;;;8.07;7.00;;;12.70;99.90;;;;;;5062655;28;20533;-85
2022/04/14 05:50:39;;;;;;;12.90;8.23;;;12.80;99.90;;;;;;5058882;28;20493;-85
2022/04/14 05:53:06;;;;;;;11.43;8.60;;;12.80;99.90;;;;;;5062765;28;20472;-84
2022/04/14 05:55:33;;;;;;;8.80;7.90;;;12.90;99.90;;;;;;5064856;28;20478;-85
2022/04/14 05:57:59;;;;;;;8.40;7.57;;;13.00;70.40;;;;;;5061696;28;20453;-85
2022/04/14 06:00:27;;;;;;;13.63;8.87;;;13.10;53.40;;;;;;5067994;28;20462;-84
2022/04/14 06:02:54;;;;;;;13.57;9.23;;;13.00;1.00;;;;;;5064484;28;20535;-84
2022/04/14 06:05:20;;;;;;;16.07;10.53;;;13.00;28.60;;;;;;5070966;28;20446;-84
2022/04/14 06:07:47;;;;;;;10.37;8.27;;;13.00;93.50;;;;;;5072143;28;20450;-85
2022/04/14 06:10:15;;;;;;;14.73;11.00;;;13.00;1.00;;;;;;5066550;28;20933;-85
2022/04/14 06:12:42;;;;;;;11.57;9.40;;;13.10;1.00;;;;;;5068593;28;20530;-84
2022/04/14 06:15:11;;;;;;;8.80;7.80;;;13.10;1.00;;;;;;5066647;28;20550;-85
2022/04/14 06:17:39;;;;;;;9.43;8.20;;;13.20;1.00;;;;;;5065551;28;20457;-84
2022/04/14 06:20:06;;;;;;;9.80;8.60;;;13.40;1.00;;;;;;5061956;28;20520;-84
2022/04/14 06:22:37;;;;;;;11.43;8.97;;;13.40;1.00;;;;;;5063651;28;20444;-85
2022/04/14 06:25:04;;;;;;;10.50;8.90;;;13.50;1.00;;;;;;5064152;28;20426;-83
2022/04/14 06:27:31;;;;;;;9.73;8.73;;;13.50;99.90;;;;;;5063531;28;20446;-84
2022/04/14 06:29:58;;;;;;;10.10;8.63;;;13.50;99.90;;;;;;5064356;28;20524;-84
2022/04/14 06:32:24;;;;;;;11.50;8.97;;;13.50;99.90;;;;;;5081283;28;20464;-82
2022/04/14 06:34:52;;;;;;;13.90;8.97;;;13.40;99.90;;;;;;5081089;28;20427;-83
2022/04/14 06:37:19;;;;;;;10.80;9.70;;;13.40;99.90;;;;;;5078094;28;20959;-84
2022/04/14 06:39:45;;;;;;;20.43;14.30;;;13.50;77.00;;;;;;5065015;28;20515;-83
2022/04/14 06:42:12;;;;;;;11.73;9.63;;;13.60;99.90;;;;;;5064467;28;20496;-84
2022/04/14 06:44:38;;;;;;;12.00;9.67;;;13.50;99.90;;;;;;5063064;28;20508;-84
2022/04/14 06:47:06;;;;;;;13.27;8.63;;;13.70;99.90;;;;;;5063390;28;20477;-84
2022/04/14 06:52:08;;;;;;;11.80;9.70;;;14.00;99.90;;;;;;5074047;28;20466;-78
2022/04/14 06:54:34;;;;;;;11.20;8.70;;;14.00;99.90;;;;;;5076119;28;20926;-79
2022/04/14 06:57:01;;;;;;;12.30;9.80;;;14.10;99.90;;;;;;5065758;28;20439;-81
2022/04/14 06:59:28;;;;;;;15.80;9.47;;;13.70;1.00;;;;;;5063854;28;20480;-79
2022/04/14 07:01:55;;;;;;;14.97;9.80;;;13.90;1.00;;;;;;5062117;28;20439;-79
2022/04/14 07:04:21;;;;;;;11.13;9.47;;;14.30;1.00;;;;;;5060978;28;20448;-80
2022/04/14 07:06:48;;;;;;;10.73;9.27;;;14.30;1.00;;;;;;5060483;28;20795;-80
2022/04/14 07:09:16;;;;;;;10.17;8.37;;;14.40;1.00;;;;;;5060756;28;20478;-80
2022/04/14 07:11:42;;;;;;;12.47;10.10;;;14.40;99.90;;;;;;5061075;28;20487;-82
2022/04/14 07:14:09;;;;;;;12.07;10.40;;;14.40;99.90;;;;;;5063046;28;20470;-80
2022/04/14 07:16:35;;;;;;;18.87;9.90;;;14.30;1.00;;;;;;5059923;28;20449;-80
2022/04/14 07:19:02;;;;;;;12.77;9.00;;;14.30;1.00;;;;;;5065000;28;20508;-80
2022/04/14 07:21:28;;;;;;;15.67;9.50;;;14.40;1.00;;;;;;5059459;28;20464;-79
2022/04/14 07:23:55;;;;;;;11.73;8.73;;;14.60;1.00;;;;;;5058732;28;20447;-79
2022/04/14 07:26:23;;;;;;;10.33;9.23;;;14.90;1.00;;;;;;5057975;28;20487;-79
2022/04/14 07:28:50;;;;;;;16.77;12.00;;;15.20;1.00;;;;;;5058073;28;20940;-81
2022/04/14 07:31:16;;;;;;;17.30;9.47;;;15.20;99.90;;;;;;5059190;28;20895;-80
2022/04/14 07:33:43;;;;;;;12.50;9.77;;;14.90;99.90;;;;;;5061227;28;20462;-79
2022/04/14 07:36:10;;;;;;;14.10;11.70;;;14.80;99.90;;;;;;5058718;28;20464;-78
2022/04/14 07:38:36;;;;;;;11.43;9.27;;;14.90;70.70;;;;;;5059124;28;20812;-79
2022/04/14 07:41:05;;;;;;;9.67;8.77;;;15.10;1.00;;;;;;5059634;28;20475;-78
2022/04/14 07:43:37;;;;;;;16.53;8.83;;;15.10;1.00;;;;;;5062804;28;20530;-78
2022/04/14 07:46:03;;;;;;;11.27;8.20;;;15.30;99.90;;;;;;5073073;28;20507;-78
2022/04/14 07:48:30;;;;;;;11.33;8.90;;;15.20;99.90;;;;;;5075353;28;20469;-78
2022/04/14 07:50:57;;;;;;;12.40;8.23;;;15.30;99.90;;;;;;5070705;28;20489;-79
2022/04/14 07:53:23;;;;;;;10.03;9.07;;;15.30;68.40;;;;;;5070794;28;20445;-79
2022/04/14 07:55:50;;;;;;;11.30;8.07;;;15.50;99.90;;;;;;5070937;28;20449;-79
2022/04/14 07:58:20;;;;;;;9.67;8.43;;;15.60;99.90;;;;;;5068763;28;20530;-79
2022/04/14 08:00:50;;;;;;;8.17;7.13;;;16.00;4.50;;;;;;5067744;28;20469;-79
2022/04/14 08:03:17;;;;;;;8.23;7.43;;;15.50;99.90;;;;;;5071790;28;20446;-79
2022/04/14 08:05:45;;;;;;;11.40;8.37;;;15.70;99.90;;;;;;5064577;28;20449;-79
2022/04/14 08:08:13;;;;;;;7.93;6.60;;;16.00;66.60;;;;;;5067427;28;20452;-77
2022/04/14 08:10:40;;;;;;;8.13;6.70;;;15.80;1.00;;;;;;5077165;28;20481;-78
2022/04/14 08:13:07;;;;;;;9.80;7.80;;;16.00;99.90;;;;;;5077243;28;20437;-78
2022/04/14 08:15:35;;;;;;;14.03;8.00;;;16.20;99.90;;;;;;5071376;28;20457;-77
2022/04/14 08:18:06;;;;;;;9.07;7.97;;;16.70;1.00;;;;;;5076961;28;20436;-79
2022/04/14 08:20:34;;;;;;;13.63;7.90;;;16.30;99.90;;;;;;5076903;28;20468;-77
2022/04/14 08:23:02;;;;;;;10.73;8.83;;;16.10;1.00;;;;;;5072579;28;20980;-80
2022/04/14 08:25:30;;;;;;;8.83;7.70;;;16.30;1.00;;;;;;5061201;28;20452;-79
2022/04/14 08:27:58;;;;;;;8.13;6.50;;;16.20;1.00;;;;;;5058787;28;20845;-80
2022/04/14 08:30:27;;;;;;;11.80;7.03;;;16.30;1.00;;;;;;5064725;28;20485;-79
2022/04/14 08:32:55;;;;;;;7.70;6.70;;;16.40;1.00;;;;;;5066722;28;20442;-79
2022/04/14 08:35:23;;;;;;;7.10;6.10;;;16.30;1.00;;;;;;5056773;28;20949;-79
2022/04/14 08:37:50;;;;;;;6.67;6.07;;;16.50;1.00;;;;;;5056709;28;20511;-79
2022/04/14 08:40:18;;;;;;;7.43;6.03;;;16.50;1.00;;;;;;5057131;28;20490;-79
2022/04/14 08:42:53;;;;;;;9.70;7.83;;;16.50;99.90;;;;;;5057214;28;20449;-79
2022/04/14 08:45:23;;;;;;;6.97;6.33;;;16.30;1.00;;;;;;5057424;28;20455;-80
2022/04/14 08:47:51;;;;;;;6.90;5.33;;;16.40;1.00;;;;;;5062439;28;20433;-79
2022/04/14 08:50:18;;;;;;;8.30;5.17;;;16.50;1.00;;;;;;5068573;28;20504;-80
2022/04/14 08:52:46;;;;;;;6.90;6.13;;;16.60;1.00;;;;;;5065375;28;20453;-79
2022/04/14 08:55:14;;;;;;;8.03;5.60;;;16.60;99.90;;;;;;5062639;28;20457;-79
2022/04/14 08:57:42;;;;;;;8.90;5.77;;;16.70;1.00;;;;;;5058450;28;20461;-79
2022/04/14 09:00:11;;;;;;;5.57;4.77;;;16.70;1.00;;;;;;5057786;28;20500;-79
2022/04/14 09:02:38;;;;;;;5.53;5.00;;;16.70;99.90;;;;;;5058280;28;20491;-80
2022/04/14 09:05:06;;;;;;;3.87;3.50;;;16.70;1.00;;;;;;5060358;28;20581;-80
2022/04/14 09:07:33;;;;;;;5.63;3.70;;;16.90;1.00;;;;;;5056821;28;20454;-80
2022/04/14 09:10:01;;;;;;;7.93;3.63;;;17.00;1.00;;;;;;5059100;28;20477;-79
2022/04/14 09:12:28;;;;;;;5.53;4.20;;;17.00;1.00;;;;;;5058081;28;20485;-79
2022/04/14 09:14:55;;;;;;;5.20;3.80;;;17.10;1.00;;;;;;5059598;28;20515;-79
2022/04/14 09:17:22;;;;;;;4.30;3.90;;;17.90;1.00;;;;;;5058145;28;21007;-80
2022/04/14 09:19:49;;;;;;;3.17;2.53;;;17.30;1.00;;;;;;5059260;28;20829;-79
2022/04/14 09:22:16;;;;;;;5.53;3.10;;;17.40;1.00;;;;;;5059540;28;20762;-79
2022/04/14 09:24:47;;;;;;;3.30;2.90;;;17.50;1.00;;;;;;5059125;28;20817;-80
2022/04/14 09:27:29;;;;;;;5.13;3.83;;;17.60;1.00;;;;;;5059964;28;20510;-79
2022/04/14 09:29:58;;;;;;;5.70;3.93;;;17.50;1.00;;;;;;5071152;28;20457;-79
2022/04/14 09:32:32;;;;;;;4.27;3.87;;;17.70;1.00;;;;;;5068232;28;20560;-80
2022/04/14 09:35:01;;;;;;;5.10;4.60;;;17.70;1.00;;;;;;5071750;28;20448;-78
2022/04/14 09:37:28;;;;;;;4.47;4.07;;;18.60;1.00;;;;;;5069983;28;20528;-79
2022/04/14 09:40:00;;;;;;;4.80;3.30;;;17.80;1.00;;;;;;5066631;28;20519;-80
2022/04/14 09:42:30;;;;;;;4.43;3.73;;;18.00;99.90;;;;;;5064657;28;20473;-80
2022/04/14 09:45:17;;;;;;;5.30;4.03;;;17.50;99.90;;;;;;5072548;28;20441;-79
2022/04/14 09:47:43;;;;;;;7.30;4.80;;;17.70;1.00;;;;;;5077742;28;20425;-80
2022/04/14 09:50:28;;;;;;;8.30;4.70;;;18.80;99.90;;;;;;5072435;28;20550;-80
2022/04/14 09:53:00;;;;;;;9.50;4.37;;;17.50;1.00;;;;;;5070391;28;20526;-79
2022/04/14 09:55:27;;;;;;;4.47;4.07;;;17.50;1.00;;;;;;5073590;28;20453;-80
2022/04/14 09:58:10;;;;;;;6.37;3.90;;;17.90;99.90;;;;;;5073409;28;20472;-79
2022/04/14 10:00:39;;;;;;;4.50;3.53;;;17.60;1.00;;;;;;5073062;28;20464;-79
2022/04/14 10:03:17;;;;;;;3.10;2.80;;;17.80;1.00;;;;;;5071726;28;20877;-80
2022/04/14 10:05:45;;;;;;;2.70;2.40;;;17.90;1.00;;;;;;5075954;28;20429;-78
2022/04/14 10:08:13;;;;;;;2.97;2.67;;;17.40;1.00;;;;;;5077812;28;20442;-78
2022/04/14 10:10:41;;;;;;;3.50;3.20;;;17.80;1.00;;;;;;5078333;28;20470;-78
2022/04/14 10:13:11;;;;;;;4.03;2.77;;;17.20;1.00;;;;;;5077300;28;20913;-78
2022/04/14 10:15:40;;;;;;;4.30;2.73;;;18.20;1.00;;;;;;5075607;28;20430;-79
2022/04/14 10:18:09;;;;;;;4.30;2.57;;;17.40;1.00;;;;;;5073951;28;20445;-79
2022/04/14 10:20:37;;;;;;;4.40;2.40;;;17.50;1.00;;;;;;5070239;28;20450;-80
2022/04/14 10:23:07;;;;;;;2.63;2.00;;;17.30;67.70;;;;;;5070098;28;20456;-80
2022/04/14 10:25:36;;;;;;;1.37;1.27;;;17.40;99.90;;;;;;5071933;28;20439;-79
2022/04/14 10:28:04;;;;;;;1.97;1.77;;;17.30;14.40;;;;;;5076049;28;20453;-78
2022/04/14 10:30:33;;;;;;;1.57;1.40;;;17.40;99.90;;;;;;5076608;28;20472;-80
2022/04/14 10:33:00;;;;;;;1.73;1.40;;;17.00;99.90;;;;;;5077414;28;20452;-79
2022/04/14 10:35:28;;;;;;;4.63;1.80;;;17.10;99.90;;;;;;5074228;28;20441;-79
2022/04/14 10:38:02;;;;;;;4.47;2.80;;;17.10;99.90;;;;;;5072712;28;20434;-79
2022/04/14 10:40:30;;;;;;;3.50;3.20;;;17.10;99.90;;;;;;5071627;28;20460;-79
2022/04/14 10:42:58;;;;;;;4.60;3.47;;;16.90;99.90;;;;;;5074033;28;20437;-79
2022/04/14 10:45:25;;;;;;;3.60;3.30;;;16.50;1.00;;;;;;5070130;28;20492;-79
2022/04/14 10:48:00;;;;;;;4.30;3.90;;;17.10;1.00;;;;;;5070333;28;20472;-78
2022/04/14 10:50:29;;;;;;;6.10;3.87;;;16.30;99.90;;;;;;5069851;28;20456;-79
2022/04/14 10:53:08;;;;;;;5.67;3.47;;;16.70;99.90;;;;;;5069993;28;20508;-79
2022/04/14 10:55:40;;;;;;;4.53;4.13;;;17.20;1.00;;;;;;5069895;28;20456;-79
2022/04/14 10:58:08;;;;;;;4.67;3.17;;;17.40;99.90;;;;;;5069514;28;20453;-78
2022/04/14 11:00:38;;;;;;;3.40;3.10;;;16.90;99.90;;;;;;5076210;28;20473;-77
2022/04/14 11:03:08;;;;;;;5.83;3.00;;;17.20;1.00;;;;;;5075564;28;20476;-79
2022/04/14 11:05:43;;;;;;;4.40;3.93;;;17.30;99.90;;;;;;5072287;28;20426;-79
2022/04/14 11:08:24;;;;;;;5.93;2.87;;;17.50;99.90;;;;;;5066622;28;20807;-78
2022/04/14 11:10:56;;;;;;;5.30;3.10;;;17.90;1.00;;;;;;5066220;28;20516;-79
2022/04/14 11:13:22;;;;;;;4.30;3.03;;;17.00;1.00;;;;;;5063953;28;20453;-79
2022/04/14 11:15:52;;;;;;;4.60;2.37;;;17.00;81.50;;;;;;5064797;28;20456;-80
2022/04/14 11:18:20;;;;;;;5.13;2.50;;;17.20;1.00;;;;;;5067923;28;20441;-79
2022/04/14 11:20:57;;;;;;;2.33;2.13;;;16.60;1.00;;;;;;5067541;28;20475;-79
2022/04/14 11:23:28;;;;;;;1.87;1.70;;;16.80;99.90;;;;;;5070076;28;20441;-80
2022/04/14 11:26:07;;;;;;;2.87;1.77;;;16.00;99.90;;;;;;5072963;28;20473;-80
2022/04/14 11:28:36;;;;;;;3.70;2.00;;;16.40;99.90;;;;;;5072661;28;20437;-80
2022/04/14 11:31:04;;;;;;;3.40;2.10;;;16.20;99.90;;;;;;5071940;28;20470;-79
2022/04/14 11:33:37;;;;;;;4.10;2.50;;;16.40;1.00;;;;;;5070700;28;20452;-80
2022/04/14 11:36:10;;;;;;;3.47;2.23;;;16.90;37.60;;;;;;5066804;28;20445;-79
2022/04/14 11:38:57;;;;;;;2.40;2.20;;;16.30;1.00;;;;;;5061995;28;20532;-82
2022/04/14 11:41:39;;;;;;;2.43;1.80;;;16.80;99.90;;;;;;5060193;28;20488;-79
2022/04/14 11:44:07;;;;;;;3.47;1.90;;;16.50;99.90;;;;;;5065824;28;20425;-80
2022/04/14 11:46:37;;;;;;;2.00;1.90;;;16.30;1.00;;;;;;5068605;28;20434;-80
2022/04/14 11:49:05;;;;;;;2.57;2.37;;;16.10;99.90;;;;;;5069089;28;20449;-78
2022/04/14 11:51:32;;;;;;;3.30;3.00;;;16.20;1.00;;;;;;5067510;28;20540;-80
2022/04/14 11:53:59;;;;;;;3.17;2.87;;;16.20;1.00;;;;;;5068715;28;20450;-80
2022/04/14 11:56:26;;;;;;;3.77;2.87;;;16.20;1.00;;;;;;5063158;28;20540;-80
2022/04/14 11:58:53;;;;;;;5.77;3.30;;;16.10;99.90;;;;;;5062397;28;20953;-82
2022/04/14 12:01:21;;;;;;;3.23;2.70;;;16.10;1.00;;;;;;5061403;28;20461;-80
2022/04/14 12:03:48;;;;;;;2.03;1.93;;;15.90;62.60;;;;;;5061084;28;20572;-80
2022/04/14 12:06:17;;;;;;;5.43;2.10;;;15.50;99.90;;;;;;5063152;28;20481;-78
2022/04/14 12:08:53;;;;;;;5.60;2.70;;;15.90;99.90;;;;;;5069049;28;20548;-80
2022/04/14 12:11:21;;;;;;;2.57;2.37;;;15.50;1.00;;;;;;5070256;28;20483;-80
2022/04/14 12:13:48;;;;;;;2.90;2.30;;;16.10;99.90;;;;;;5068995;28;20449;-79
2022/04/14 12:16:15;;;;;;;9.20;3.50;;;16.00;1.00;;;;;;5070039;28;20466;-78
2022/04/14 12:18:49;;;;;;;4.87;1.93;;;15.40;77.70;;;;;;5071059;28;20453;-78
2022/04/14 12:21:22;;;;;;;1.80;1.70;;;15.90;99.90;;;;;;5069080;28;20511;-79
2022/04/14 12:23:50;;;;;;;1.63;1.50;;;15.50;99.90;;;;;;5068206;28;20438;-79
2022/04/14 12:26:18;;;;;;;1.70;1.57;;;15.80;99.90;;;;;;5068174;28;20449;-80
2022/04/14 12:28:46;;;;;;;4.27;2.00;;;15.30;99.90;;;;;;5068826;28;20455;-80
2022/04/14 12:31:16;;;;;;;8.20;2.10;;;14.80;99.90;;;;;;5068032;28;20473;-80
2022/04/14 12:33:54;;;;;;;3.07;2.40;;;14.80;99.90;;;;;;5068645;28;20450;-80
2022/04/14 12:36:32;;;;;;;6.20;2.53;;;15.40;99.90;;;;;;5068181;28;20437;-79
2022/04/14 12:38:58;;;;;;;2.23;2.03;;;15.10;99.90;;;;;;5071396;28;20436;-80
2022/04/14 12:41:25;;;;;;;4.13;2.60;;;15.00;1.00;;;;;;5068795;28;20460;-80
2022/04/14 12:43:57;;;;;;;6.57;3.30;;;15.10;1.00;;;;;;5061405;28;20502;-79
2022/04/14 12:46:25;;;;;;;3.30;3.00;;;14.70;1.00;;;;;;5059849;28;20432;-80
2022/04/14 12:49:07;;;;;;;3.57;3.07;;;14.80;1.00;;;;;;5059557;28;20444;-80
2022/04/14 12:51:38;;;;;;;4.43;3.80;;;14.40;1.00;;;;;;5075755;22;20560;-85